createdAt,value
2023-08-09T00:02:25.150Z,100098.03
2023-08-09T00:04:52.819Z,100109.69
2023-08-09T00:07:20.500Z,100105.56
2023-08-09T00:09:48.226Z,100110.88
2023-08-09T00:12:16.396Z,100114.72
2023-08-09T00:14:45.632Z,100101.66
2023-08-09T00:17:13.703Z,100100.19
2023-08-09T00:19:41.376Z,100099.75
2023-08-09T00:22:09.703Z,100099.97
2023-08-09T00:24:37.391Z,100104.47
2023-08-09T00:27:05.430Z,100096.50
2023-08-09T00:29:33.203Z,100090.34
2023-08-09T00:32:02.356Z,100094.03
2023-08-09T00:34:30.229Z,100093.19
2023-08-09T00:36:57.944Z,100092.38
2023-08-09T00:39:26.502Z,100102.19
2023-08-09T00:41:54.309Z,100091.16
2023-08-09T00:44:22.772Z,100090.50
2023-08-09T00:46:51.084Z,100078.03
2023-08-09T00:49:20.321Z,100090.69
2023-08-09T00:51:49.790Z,100085.56
2023-08-09T00:54:17.969Z,100081.25
2023-08-09T00:56:46.473Z,100087.41
2023-08-09T00:59:14.460Z,100074.34
2023-08-09T01:01:42.164Z,100082.50
2023-08-09T01:04:10.262Z,100076.56
2023-08-09T01:06:46.504Z,100069.78
2023-08-09T01:09:27.310Z,100084.91
2023-08-09T01:11:59.647Z,100078.16
2023-08-09T01:14:29.640Z,100086.34
2023-08-09T01:16:59.319Z,100088.34
2023-08-09T01:19:36.034Z,100090.41
2023-08-09T01:22:06.391Z,100083.81
2023-08-09T01:24:36.025Z,100086.63
2023-08-09T01:27:04.150Z,100089.00
2023-08-09T01:29:32.705Z,100081.94
2023-08-09T01:32:00.685Z,100091.66
2023-08-09T01:34:29.270Z,100092.53
2023-08-09T01:37:01.251Z,100098.53
2023-08-09T01:39:34.496Z,100094.38
2023-08-09T01:42:03.818Z,100090.00
2023-08-09T01:44:32.714Z,100094.25
2023-08-09T01:47:00.628Z,100098.91
2023-08-09T01:49:28.538Z,100100.50
2023-08-09T01:51:57.109Z,100090.47
2023-08-09T01:54:25.318Z,100095.50
2023-08-09T01:56:53.218Z,100104.19
2023-08-09T01:59:24.154Z,100103.94
2023-08-09T02:01:51.907Z,100110.84
2023-08-09T02:04:19.622Z,100114.03
2023-08-09T02:06:47.412Z,100117.41
2023-08-09T02:09:15.163Z,100116.78
2023-08-09T02:11:43.071Z,100122.72
2023-08-09T02:14:10.709Z,100126.84
2023-08-09T02:16:41.802Z,100132.59
2023-08-09T02:19:10.731Z,100137.53
2023-08-09T02:21:39.728Z,100145.16
2023-08-09T02:24:09.251Z,100145.56
2023-08-09T02:26:37.198Z,100157.66
2023-08-09T02:29:05.104Z,100148.47
2023-08-09T02:31:33.162Z,100155.84
2023-08-09T02:34:03.241Z,100150.88
2023-08-09T02:36:31.156Z,100153.28
2023-08-09T02:38:59.389Z,100145.41
2023-08-09T02:41:27.210Z,100154.47
2023-08-09T02:43:55.001Z,100166.66
2023-08-09T02:46:22.938Z,100167.81
2023-08-09T02:48:50.761Z,100176.25
2023-08-09T02:51:20.926Z,100177.34
2023-08-09T02:54:02.662Z,100186.22
2023-08-09T02:56:30.775Z,100188.94
2023-08-09T02:58:58.973Z,100189.69
2023-08-09T03:01:27.107Z,100208.81
2023-08-09T03:03:57.128Z,100203.38
2023-08-09T03:06:26.491Z,100206.13
2023-08-09T03:08:54.994Z,100211.31
2023-08-09T03:11:24.398Z,100211.59
2023-08-09T03:13:53.377Z,100218.81
2023-08-09T03:16:22.010Z,100218.22
2023-08-09T03:18:50.051Z,100217.88
2023-08-09T03:21:18.158Z,100208.66
2023-08-09T03:23:47.289Z,100217.72
2023-08-09T03:26:15.088Z,100211.69
2023-08-09T03:28:43.930Z,100216.84
2023-08-09T03:31:13.877Z,100214.81
2023-08-09T03:33:42.301Z,100216.31
2023-08-09T03:36:10.185Z,100215.47
2023-08-09T03:38:37.908Z,100218.75
2023-08-09T03:41:06.950Z,100234.09
2023-08-09T03:43:36.461Z,100236.81
2023-08-09T03:46:05.649Z,100228.09
2023-08-09T03:48:33.720Z,100230.03
2023-08-09T03:51:01.490Z,100239.88
2023-08-09T03:53:29.239Z,100236.28
2023-08-09T03:55:57.084Z,100241.47
2023-08-09T03:58:26.482Z,100242.16
2023-08-09T04:00:54.182Z,100247.84
2023-08-09T04:03:21.982Z,100258.75
2023-08-09T04:05:50.233Z,100258.31
2023-08-09T04:08:18.056Z,100251.88
2023-08-09T04:10:45.714Z,100253.41
2023-08-09T04:13:13.992Z,100265.19
2023-08-09T04:15:43.040Z,100265.69
2023-08-09T04:18:10.971Z,100262.38
2023-08-09T04:20:39.368Z,100269.69
2023-08-09T04:23:07.047Z,100268.88
2023-08-09T04:25:34.717Z,100266.41
2023-08-09T04:28:03.017Z,100267.22
2023-08-09T04:30:30.688Z,100267.22
2023-08-09T04:33:01.873Z,100272.97
2023-08-09T04:35:29.865Z,100277.28
2023-08-09T04:37:57.666Z,100279.75
2023-08-09T04:40:26.152Z,100292.00
2023-08-09T04:42:53.920Z,100294.31
2023-08-09T04:45:22.316Z,100306.19
2023-08-09T04:47:53.352Z,100292.13
2023-08-09T04:50:22.798Z,100299.25
2023-08-09T04:52:50.752Z,100306.69
2023-08-09T04:55:19.322Z,100306.16
2023-08-09T04:57:47.020Z,100303.78
2023-08-09T05:00:15.873Z,100300.66
2023-08-09T05:02:43.786Z,100305.22
2023-08-09T05:05:12.667Z,100306.00
2023-08-09T05:07:41.692Z,100305.59
2023-08-09T05:10:11.584Z,100312.19
2023-08-09T05:12:39.316Z,100319.34
2023-08-09T05:15:08.987Z,100318.09
2023-08-09T05:17:36.707Z,100319.88
2023-08-09T05:20:05.013Z,100329.44
2023-08-09T05:22:32.751Z,100324.03
2023-08-09T05:25:01.732Z,100319.97
2023-08-09T05:27:29.499Z,100328.38
2023-08-09T05:29:57.231Z,100327.94
2023-08-09T05:32:25.032Z,100327.91
2023-08-09T05:34:52.715Z,100335.88
2023-08-09T05:37:20.436Z,100325.09
2023-08-09T05:39:48.365Z,100334.41
2023-08-09T05:42:17.423Z,100327.50
2023-08-09T05:44:45.108Z,100339.19
2023-08-09T05:47:12.885Z,100323.88
2023-08-09T05:49:40.647Z,100328.00
2023-08-09T05:52:08.442Z,100335.22
2023-08-09T05:54:36.119Z,100340.16
2023-08-09T05:57:04.164Z,100332.59
2023-08-09T05:59:33.401Z,100332.19
2023-08-09T06:02:01.993Z,100340.16
2023-08-09T06:04:29.654Z,100337.88
2023-08-09T06:06:57.515Z,100350.94
2023-08-09T06:09:25.505Z,100352.94
2023-08-09T06:11:53.256Z,100356.63
2023-08-09T06:14:20.943Z,100351.69
2023-08-09T06:16:50.064Z,100352.44
2023-08-09T06:19:18.320Z,100359.22
2023-08-09T06:21:46.146Z,100356.94
2023-08-09T06:24:13.787Z,100361.84
2023-08-09T06:26:41.501Z,100367.34
2023-08-09T06:29:10.152Z,100374.25
2023-08-09T06:31:37.917Z,100369.75
2023-08-09T06:34:07.020Z,100376.72
2023-08-09T06:36:34.774Z,100382.47
2023-08-09T06:39:02.442Z,100387.78
2023-08-09T06:41:30.278Z,100383.94
2023-08-09T06:43:58.088Z,100389.31
2023-08-09T06:46:25.835Z,100387.47
2023-08-09T06:48:53.935Z,100388.94
2023-08-09T06:51:23.124Z,100395.53
2023-08-09T06:53:50.841Z,100402.50
2023-08-09T06:56:18.533Z,100403.31
2023-08-09T06:58:46.161Z,100410.72
2023-08-09T07:01:14.103Z,100410.53
2023-08-09T07:03:41.968Z,100403.38
2023-08-09T07:06:09.754Z,100405.47
2023-08-09T07:08:38.782Z,100404.25
2023-08-09T07:11:06.434Z,100414.53
2023-08-09T07:13:35.144Z,100414.78
2023-08-09T07:16:04.548Z,100419.72
2023-08-09T07:18:32.259Z,100424.28
2023-08-09T07:20:59.950Z,100430.22
2023-08-09T07:23:41.273Z,100429.47
2023-08-09T07:26:16.887Z,100430.38
2023-08-09T07:28:44.724Z,100430.78
2023-08-09T07:31:18.443Z,100439.84
2023-08-09T07:33:46.169Z,100440.28
2023-08-09T07:36:13.910Z,100446.31
2023-08-09T07:38:41.603Z,100446.94
2023-08-09T07:41:09.344Z,100441.22
2023-08-09T07:43:38.869Z,100445.78
2023-08-09T07:46:07.669Z,100452.38
2023-08-09T07:48:35.685Z,100455.91
2023-08-09T07:51:03.563Z,100455.50
2023-08-09T07:53:31.484Z,100457.19
2023-08-09T07:55:59.228Z,100471.63
2023-08-09T07:58:27.104Z,100468.53
2023-08-09T08:00:56.207Z,100467.94
2023-08-09T08:03:24.752Z,100468.84
2023-08-09T08:05:52.548Z,100468.66
2023-08-09T08:08:20.362Z,100480.16
2023-08-09T08:10:48.651Z,100481.44
2023-08-09T08:13:16.544Z,100469.56
2023-08-09T08:15:44.477Z,100478.16
2023-08-09T08:18:14.471Z,100474.50
2023-08-09T08:20:42.164Z,100476.59
2023-08-09T08:23:09.977Z,100468.81
2023-08-09T08:25:37.704Z,100471.50
2023-08-09T08:28:07.011Z,100480.78
2023-08-09T08:30:34.728Z,100472.16
2023-08-09T08:33:02.987Z,100483.88
2023-08-09T08:35:35.318Z,100482.28
2023-08-09T08:38:03.213Z,100469.78
2023-08-09T08:40:32.818Z,100480.88
2023-08-09T08:43:01.119Z,100475.75
2023-08-09T08:45:29.040Z,100484.59
2023-08-09T08:47:56.743Z,100485.03
2023-08-09T08:50:26.368Z,100480.91
2023-08-09T08:52:56.509Z,100487.31
2023-08-09T08:55:25.025Z,100486.91
2023-08-09T08:57:54.201Z,100486.31
2023-08-09T09:00:27.625Z,100485.94
2023-08-09T09:02:57.357Z,100485.28
2023-08-09T09:05:25.474Z,100489.63
2023-08-09T09:07:58.144Z,100491.25
2023-08-09T09:10:26.288Z,100495.16
2023-08-09T09:12:57.058Z,100493.94
2023-08-09T09:15:25.795Z,100490.44
2023-08-09T09:17:53.517Z,100493.53
2023-08-09T09:20:24.674Z,100496.63
2023-08-09T09:22:53.844Z,100484.72
2023-08-09T09:25:24.857Z,100484.28
2023-08-09T09:27:56.657Z,100487.97
2023-08-09T09:30:26.420Z,100495.34
2023-08-09T09:32:59.215Z,100495.94
2023-08-09T09:35:28.616Z,100497.41
2023-08-09T09:37:58.079Z,100498.41
2023-08-09T09:40:28.808Z,100497.81
2023-08-09T09:42:58.387Z,100503.97
2023-08-09T09:45:28.154Z,100507.06
2023-08-09T09:47:58.563Z,100495.72
2023-08-09T09:50:30.274Z,100498.38
2023-08-09T09:52:58.303Z,100503.09
2023-08-09T09:55:29.652Z,100498.13
2023-08-09T09:58:00.680Z,100503.03
2023-08-09T10:00:29.480Z,100505.28
2023-08-09T10:02:57.999Z,100507.94
2023-08-09T10:05:31.303Z,100506.31
2023-08-09T10:08:00.344Z,100513.91
2023-08-09T10:10:29.690Z,100509.97
2023-08-09T10:12:58.166Z,100516.34
2023-08-09T10:15:31.132Z,100513.59
2023-08-09T10:18:04.152Z,100512.13
2023-08-09T10:20:33.288Z,100522.00
2023-08-09T10:23:02.214Z,100525.06
2023-08-09T10:25:45.800Z,100517.97
2023-08-09T10:28:14.098Z,100516.75
2023-08-09T10:30:48.267Z,100529.28
2023-08-09T10:33:20.003Z,100525.28
2023-08-09T10:35:51.317Z,100526.91
2023-08-09T10:38:20.970Z,100530.50
2023-08-09T10:40:55.609Z,100530.00
2023-08-09T10:43:25.408Z,100546.19
2023-08-09T10:45:55.914Z,100535.06
2023-08-09T10:48:25.026Z,100539.16
2023-08-09T10:51:03.288Z,100541.56
2023-08-09T10:53:31.033Z,100537.69
2023-08-09T10:56:00.079Z,100541.19
2023-08-09T10:58:31.012Z,100528.50
2023-08-09T11:00:58.836Z,100549.94
2023-08-09T11:03:27.222Z,100542.97
2023-08-09T11:05:55.100Z,100533.84
2023-08-09T11:08:22.962Z,100538.50
2023-08-09T11:10:51.016Z,100542.69
2023-08-09T11:13:20.916Z,100531.34
2023-08-09T11:15:51.515Z,100540.59
2023-08-09T11:18:20.059Z,100533.34
2023-08-09T11:20:47.720Z,100540.72
2023-08-09T11:23:15.537Z,100534.78
2023-08-09T11:25:43.494Z,100540.72
2023-08-09T11:28:15.573Z,100543.88
2023-08-09T11:30:46.625Z,100541.91
2023-08-09T11:33:14.607Z,100546.78
2023-08-09T11:35:45.521Z,100545.41
2023-08-09T11:38:15.223Z,100544.25
2023-08-09T11:40:45.721Z,100538.50
2023-08-09T11:43:16.061Z,100542.25
2023-08-09T11:45:53.694Z,100543.78
2023-08-09T11:48:26.634Z,100550.66
2023-08-09T11:51:03.937Z,100548.00
2023-08-09T11:53:32.128Z,100555.53
2023-08-09T11:56:01.306Z,100550.38
2023-08-09T11:58:29.451Z,100559.16
2023-08-09T12:00:59.711Z,100553.72
2023-08-09T12:03:27.489Z,100552.78
2023-08-09T12:05:56.837Z,100556.06
2023-08-09T12:08:35.520Z,100557.44
2023-08-09T12:11:03.295Z,100562.94
2023-08-09T12:13:32.338Z,100559.53
2023-08-09T12:16:07.571Z,100559.91
2023-08-09T12:18:37.040Z,100573.88
2023-08-09T12:21:06.805Z,100573.53
2023-08-09T12:23:34.944Z,100580.66
2023-08-09T12:26:02.874Z,100577.44
2023-08-09T12:28:30.573Z,100577.09
2023-08-09T12:30:58.490Z,100576.81
2023-08-09T12:33:28.356Z,100576.34
2023-08-09T12:35:56.230Z,100595.38
2023-08-09T12:38:25.174Z,100586.22
2023-08-09T12:40:52.924Z,100592.25
2023-08-09T12:43:20.643Z,100599.16
2023-08-09T12:45:49.059Z,100592.56
2023-08-09T12:48:16.812Z,100593.13
2023-08-09T12:50:46.099Z,100597.09
2023-08-09T12:53:13.756Z,100598.25
2023-08-09T12:55:41.999Z,100593.88
2023-08-09T12:58:10.702Z,100596.94
2023-08-09T13:00:38.607Z,100588.19
2023-08-09T13:03:07.858Z,100585.56
2023-08-09T13:05:36.116Z,100602.91
2023-08-09T13:08:05.955Z,100598.25
2023-08-09T13:10:34.807Z,100602.81
2023-08-09T13:13:02.499Z,100598.19
2023-08-09T13:15:30.216Z,100592.47
2023-08-09T13:17:57.918Z,100600.84
2023-08-09T13:20:26.148Z,100600.63
2023-08-09T13:22:54.948Z,100596.06
2023-08-09T13:25:24.214Z,100591.50
2023-08-09T13:27:52.409Z,100588.97
2023-08-09T13:30:20.195Z,100585.91
2023-08-09T13:32:49.488Z,100587.19
2023-08-09T13:35:17.186Z,100587.75
2023-08-09T13:37:44.920Z,100583.28
2023-08-09T13:40:13.259Z,100603.72
2023-08-09T13:42:47.426Z,100598.50
2023-08-09T13:45:15.940Z,100595.84
2023-08-09T13:47:43.604Z,100589.91
2023-08-09T13:50:13.156Z,100598.44
2023-08-09T13:52:40.847Z,100595.59
2023-08-09T13:55:09.579Z,100605.19
2023-08-09T13:57:37.381Z,100602.34
2023-08-09T14:00:15.197Z,100601.44
2023-08-09T14:02:43.588Z,100604.25
2023-08-09T14:05:12.416Z,100610.50
2023-08-09T14:07:40.303Z,100601.19
2023-08-09T14:10:09.034Z,100609.53
2023-08-09T14:12:39.254Z,100617.44
2023-08-09T14:15:10.605Z,100613.34
2023-08-09T14:17:38.688Z,100616.38
2023-08-09T14:20:11.181Z,100616.38
2023-08-09T14:22:38.888Z,100609.47
2023-08-09T14:25:07.189Z,100613.88
2023-08-09T14:27:34.872Z,100601.59
2023-08-09T14:30:02.644Z,100612.13
2023-08-09T14:32:31.745Z,100605.34
2023-08-09T14:34:59.492Z,100607.75
2023-08-09T14:37:27.143Z,100612.09
2023-08-09T14:39:54.865Z,100604.59
2023-08-09T14:42:22.535Z,100602.16
2023-08-09T14:44:50.296Z,100597.97
2023-08-09T14:47:17.993Z,100595.66
2023-08-09T14:49:47.166Z,100600.56
2023-08-09T14:52:14.998Z,100612.13
2023-08-09T14:54:42.679Z,100608.63
2023-08-09T14:57:10.463Z,100608.63
2023-08-09T14:59:38.318Z,100600.03
2023-08-09T15:02:06.192Z,100596.28
2023-08-09T15:04:34.107Z,100613.59
2023-08-09T15:07:03.951Z,100612.75
2023-08-09T15:09:34.482Z,100616.09
2023-08-09T15:12:02.174Z,100616.97
2023-08-09T15:14:30.014Z,100610.91
2023-08-09T15:17:03.371Z,100619.03
2023-08-09T15:19:37.585Z,100617.59
2023-08-09T15:22:06.960Z,100622.00
2023-08-09T15:24:35.097Z,100624.16
2023-08-09T15:27:03.394Z,100619.69
2023-08-09T15:29:31.309Z,100623.53
2023-08-09T15:31:59.936Z,100622.59
2023-08-09T15:34:27.678Z,100623.22
2023-08-09T15:36:55.460Z,100624.13
2023-08-09T15:39:24.533Z,100626.72
2023-08-09T15:41:55.447Z,100627.41
2023-08-09T15:44:28.196Z,100629.53
2023-08-09T15:46:56.160Z,100633.88
2023-08-09T15:49:23.894Z,100631.91
2023-08-09T15:51:51.731Z,100629.09
2023-08-09T15:54:19.402Z,100624.31
2023-08-09T15:56:48.454Z,100625.59
2023-08-09T15:59:16.689Z,100631.59
2023-08-09T16:01:46.342Z,100635.72
2023-08-09T16:04:14.215Z,100639.69
2023-08-09T16:06:42.034Z,100631.41
2023-08-09T16:09:15.568Z,100631.06
2023-08-09T16:11:44.814Z,100637.38
2023-08-09T16:14:13.931Z,100629.84
2023-08-09T16:16:41.762Z,100630.59
2023-08-09T16:19:09.579Z,100628.75
2023-08-09T16:21:37.660Z,100627.16
2023-08-09T16:24:06.073Z,100632.19
2023-08-09T16:26:36.340Z,100634.50
2023-08-09T16:29:05.450Z,100643.25
2023-08-09T16:31:34.626Z,100651.25
2023-08-09T16:34:02.358Z,100655.28
2023-08-09T16:36:30.062Z,100662.31
2023-08-09T16:38:57.839Z,100648.22
2023-08-09T16:41:25.670Z,100660.31
2023-08-09T16:43:55.742Z,100656.47
2023-08-09T16:46:24.970Z,100656.03
2023-08-09T16:48:54.650Z,100662.97
2023-08-09T16:51:22.588Z,100665.47
2023-08-09T16:53:50.351Z,100656.34
2023-08-09T16:56:18.077Z,100662.09
2023-08-09T16:58:45.898Z,100657.28
2023-08-09T17:01:18.050Z,100660.78
2023-08-09T17:03:46.242Z,100663.75
2023-08-09T17:06:16.395Z,100656.59
2023-08-09T17:08:44.234Z,100667.56
2023-08-09T17:11:11.956Z,100665.97
2023-08-09T17:13:39.628Z,100662.00
2023-08-09T17:16:07.416Z,100668.84
2023-08-09T17:18:35.294Z,100665.56
2023-08-09T17:21:04.410Z,100664.09
2023-08-09T17:23:33.522Z,100665.50
2023-08-09T17:26:01.212Z,100671.38
2023-08-09T17:28:28.966Z,100670.25
2023-08-09T17:30:56.699Z,100668.31
2023-08-09T17:33:24.380Z,100668.78
2023-08-09T17:35:52.099Z,100665.19
2023-08-09T17:38:25.696Z,100667.81
2023-08-09T17:40:55.076Z,100666.06
2023-08-09T17:43:22.722Z,100666.19
2023-08-09T17:45:50.419Z,100672.22
2023-08-09T17:48:20.077Z,100674.34
2023-08-09T17:50:48.020Z,100675.22
2023-08-09T17:53:15.704Z,100683.91
2023-08-09T17:55:43.401Z,100670.50
2023-08-09T17:58:12.481Z,100669.06
2023-08-09T18:00:41.749Z,100671.59
2023-08-09T18:03:10.712Z,100670.97
2023-08-09T18:05:38.673Z,100673.84
2023-08-09T18:08:07.233Z,100681.31
2023-08-09T18:10:34.979Z,100680.28
2023-08-09T18:13:04.107Z,100678.09
2023-08-09T18:15:33.526Z,100676.25
2023-08-09T18:18:01.338Z,100687.84
2023-08-09T18:20:29.107Z,100690.59
2023-08-09T18:22:56.993Z,100696.56
2023-08-09T18:25:25.643Z,100697.84
2023-08-09T18:27:53.635Z,100705.00
2023-08-09T18:30:21.823Z,100712.84
2023-08-09T18:32:51.034Z,100702.97
2023-08-09T18:35:19.568Z,100699.47
2023-08-09T18:37:47.629Z,100717.41
2023-08-09T18:40:17.223Z,100712.44
2023-08-09T18:42:46.778Z,100714.72
2023-08-09T18:45:16.147Z,100715.31
2023-08-09T18:47:44.131Z,100723.13
2023-08-09T18:50:14.715Z,100717.97
2023-08-09T18:52:45.534Z,100713.38
2023-08-09T18:55:18.188Z,100733.50
2023-08-09T18:57:46.942Z,100725.44
2023-08-09T19:00:16.992Z,100732.97
2023-08-09T19:02:45.600Z,100736.41
2023-08-09T19:05:15.650Z,100737.59
2023-08-09T19:07:44.227Z,100742.28
2023-08-09T19:10:12.112Z,100740.78
2023-08-09T19:12:40.037Z,100738.06
2023-08-09T19:15:09.230Z,100746.66
2023-08-09T19:17:37.355Z,100746.22
2023-08-09T19:20:06.173Z,100738.81
2023-08-09T19:22:35.970Z,100744.72
2023-08-09T19:25:04.636Z,100734.63
2023-08-09T19:27:32.492Z,100753.09
2023-08-09T19:30:01.162Z,100755.06
2023-08-09T19:32:29.163Z,100758.75
2023-08-09T19:34:57.028Z,100758.13
2023-08-09T19:37:25.480Z,100757.09
2023-08-09T19:39:54.593Z,100764.59
2023-08-09T19:42:22.295Z,100764.41
2023-08-09T19:44:50.164Z,100770.53
2023-08-09T19:47:17.870Z,100772.19
2023-08-09T19:49:46.387Z,100777.97
2023-08-09T19:52:14.759Z,100771.41
2023-08-09T19:54:42.416Z,100776.19
2023-08-09T19:57:11.463Z,100772.69
2023-08-09T19:59:39.310Z,100777.19
2023-08-09T20:02:07.834Z,100772.44
2023-08-09T20:04:38.295Z,100772.19
2023-08-09T20:07:07.506Z,100778.47
2023-08-09T20:09:36.456Z,100785.75
2023-08-09T20:12:05.618Z,100777.09
2023-08-09T20:14:34.846Z,100777.03
2023-08-09T20:17:03.262Z,100785.16
2023-08-09T20:19:32.705Z,100791.44
2023-08-09T20:22:00.403Z,100783.38
2023-08-09T20:24:39.440Z,100788.63
2023-08-09T20:27:07.791Z,100797.38
2023-08-09T20:29:37.886Z,100795.13
2023-08-09T20:32:06.439Z,100791.97
2023-08-09T20:34:34.642Z,100797.72
2023-08-09T20:37:03.022Z,100797.88
2023-08-09T20:39:32.896Z,100802.75
2023-08-09T20:42:00.758Z,100801.09
2023-08-09T20:44:30.940Z,100807.81
2023-08-09T20:47:00.087Z,100811.88
2023-08-09T20:49:28.057Z,100805.25
2023-08-09T20:51:57.265Z,100813.84
2023-08-09T20:54:25.084Z,100819.34
2023-08-09T20:56:52.809Z,100815.38
2023-08-09T20:59:22.521Z,100811.44
2023-08-09T21:01:50.459Z,100812.81
2023-08-09T21:04:20.217Z,100820.34
2023-08-09T21:06:47.995Z,100821.06
2023-08-09T21:09:16.005Z,100826.09
2023-08-09T21:11:43.747Z,100825.66
2023-08-09T21:14:11.483Z,100828.69
2023-08-09T21:16:39.375Z,100824.19
2023-08-09T21:19:08.352Z,100833.66
2023-08-09T21:21:37.643Z,100834.00
2023-08-09T21:26:36.716Z,100836.75
2023-08-09T21:29:04.792Z,100837.97
2023-08-09T21:31:32.578Z,100835.47
2023-08-09T21:34:00.397Z,100841.81
2023-08-09T21:36:28.099Z,100843.47
2023-08-09T21:38:57.254Z,100844.28
2023-08-09T21:41:25.720Z,100843.81
2023-08-09T21:43:53.472Z,100851.34
2023-08-09T21:46:21.181Z,100849.88
2023-08-09T21:48:48.960Z,100849.41
2023-08-09T21:51:16.658Z,100842.16
2023-08-09T21:53:44.417Z,100854.34
2023-08-09T21:56:13.637Z,100851.41
2023-08-09T21:58:41.382Z,100845.13
2023-08-09T22:01:09.159Z,100861.00
2023-08-09T22:03:37.007Z,100852.69
2023-08-09T22:06:05.047Z,100857.75
2023-08-09T22:08:32.770Z,100854.63
2023-08-09T22:11:00.498Z,100851.31
2023-08-09T22:13:29.675Z,100859.00
2023-08-09T22:15:57.355Z,100861.00
2023-08-09T22:18:25.121Z,100869.31
2023-08-09T22:20:52.848Z,100872.34
2023-08-09T22:23:20.608Z,100867.91
2023-08-09T22:25:48.298Z,100872.09
2023-08-09T22:28:16.413Z,100875.13
2023-08-09T22:30:45.543Z,100870.31
2023-08-09T22:33:13.450Z,100882.31
2023-08-09T22:35:41.408Z,100875.00
2023-08-09T22:38:09.140Z,100871.38
2023-08-09T22:40:39.250Z,100872.25
2023-08-09T22:43:07.454Z,100879.94
2023-08-09T22:45:36.667Z,100880.78
2023-08-09T22:48:06.870Z,100882.28
2023-08-09T22:50:34.714Z,100885.63
2023-08-09T22:53:02.640Z,100881.84
2023-08-09T22:55:30.983Z,100886.84
2023-08-09T22:57:58.696Z,100889.34
2023-08-09T23:00:26.558Z,100890.03
2023-08-09T23:02:54.606Z,100894.03
2023-08-09T23:05:23.986Z,100891.69
2023-08-09T23:07:51.734Z,100892.06
2023-08-09T23:10:19.704Z,100895.38
2023-08-09T23:12:47.467Z,100902.03
2023-08-09T23:15:15.408Z,100893.75
2023-08-09T23:17:43.120Z,100907.34
2023-08-09T23:20:11.793Z,100899.06
2023-08-09T23:22:43.278Z,100897.91
2023-08-09T23:25:11.063Z,100902.56
2023-08-09T23:27:39.188Z,100905.69
2023-08-09T23:30:08.843Z,100907.50
2023-08-09T23:32:37.083Z,100912.34
2023-08-09T23:35:06.261Z,100910.69
2023-08-09T23:37:33.972Z,100910.19
2023-08-09T23:40:03.376Z,100910.53
2023-08-09T23:42:31.916Z,100903.53
2023-08-09T23:45:00.688Z,100903.53
2023-08-09T23:47:28.386Z,100909.19
2023-08-09T23:49:56.144Z,100911.19
2023-08-09T23:52:23.968Z,100910.66
2023-08-09T23:54:51.777Z,100918.00
2023-08-09T23:57:20.797Z,100924.56
2023-08-09T23:59:48.911Z,100922.25
